sensor_id;sensor_type;location;lat;lon;timestamp;P1;durP1;ratioP1;P2;durP2;ratioP2
17145;SDS011;8688;54.444;18.444;2022-11-15T00:01:51;63.13;;;28.73;;
17145;SDS011;8688;54.444;18.444;2022-11-15T00:04:18;56.97;;;28.20;;
17145;SDS011;8688;54.444;18.444;2022-11-15T00:06:46;61.53;;;27.43;;
17145;SDS011;8688;54.444;18.444;2022-11-15T00:11:49;55.20;;;27.30;;
17145;SDS011;8688;54.444;18.444;2022-11-15T00:14:18;59.93;;;28.00;;
17145;SDS011;8688;54.444;18.444;2022-11-15T00:16:45;60.73;;;28.50;;
17145;SDS011;8688;54.444;18.444;2022-11-15T00:19:15;63.63;;;28.10;;
17145;SDS011;8688;54.444;18.444;2022-11-15T00:21:42;61.30;;;27.53;;
17145;SDS011;8688;54.444;18.444;2022-11-15T00:24:09;61.87;;;29.70;;
17145;SDS011;8688;54.444;18.444;2022-11-15T00:26:37;63.20;;;29.23;;
17145;SDS011;8688;54.444;18.444;2022-11-15T00:29:04;65.10;;;29.17;;
17145;SDS011;8688;54.444;18.444;2022-11-15T00:31:32;63.07;;;28.50;;
17145;SDS011;8688;54.444;18.444;2022-11-15T00:33:59;61.67;;;28.10;;
17145;SDS011;8688;54.444;18.444;2022-11-15T00:36:28;59.73;;;28.47;;
17145;SDS011;8688;54.444;18.444;2022-11-15T00:38:58;61.87;;;28.53;;
17145;SDS011;8688;54.444;18.444;2022-11-15T00:41:26;61.37;;;28.03;;
17145;SDS011;8688;54.444;18.444;2022-11-15T00:46:22;59.43;;;28.27;;
17145;SDS011;8688;54.444;18.444;2022-11-15T00:48:50;65.30;;;28.67;;
17145;SDS011;8688;54.444;18.444;2022-11-15T00:51:17;62.83;;;28.00;;
17145;SDS011;8688;54.444;18.444;2022-11-15T00:53:46;57.93;;;27.23;;
17145;SDS011;8688;54.444;18.444;2022-11-15T00:56:13;58.37;;;26.50;;
17145;SDS011;8688;54.444;18.444;2022-11-15T00:58:41;57.27;;;26.37;;
17145;SDS011;8688;54.444;18.444;2022-11-15T01:01:08;57.83;;;24.27;;
17145;SDS011;8688;54.444;18.444;2022-11-15T01:03:37;58.33;;;25.83;;
17145;SDS011;8688;54.444;18.444;2022-11-15T01:06:06;56.77;;;24.33;;
17145;SDS011;8688;54.444;18.444;2022-11-15T01:08:34;56.90;;;23.90;;
17145;SDS011;8688;54.444;18.444;2022-11-15T01:11:04;57.07;;;25.50;;
17145;SDS011;8688;54.444;18.444;2022-11-15T01:13:33;53.57;;;23.30;;
17145;SDS011;8688;54.444;18.444;2022-11-15T01:16:05;55.90;;;25.23;;
17145;SDS011;8688;54.444;18.444;2022-11-15T01:18:33;60.50;;;27.17;;
17145;SDS011;8688;54.444;18.444;2022-11-15T01:21:04;56.57;;;25.20;;
17145;SDS011;8688;54.444;18.444;2022-11-15T01:23:32;55.07;;;25.77;;
17145;SDS011;8688;54.444;18.444;2022-11-15T01:26:00;57.77;;;24.53;;
17145;SDS011;8688;54.444;18.444;2022-11-15T01:28:31;56.30;;;24.20;;
17145;SDS011;8688;54.444;18.444;2022-11-15T01:30:59;56.77;;;24.27;;
17145;SDS011;8688;54.444;18.444;2022-11-15T01:33:28;55.53;;;24.17;;
17145;SDS011;8688;54.444;18.444;2022-11-15T01:35:56;56.70;;;25.10;;
17145;SDS011;8688;54.444;18.444;2022-11-15T01:38:23;58.30;;;25.97;;
17145;SDS011;8688;54.444;18.444;2022-11-15T01:40:50;57.37;;;25.27;;
17145;SDS011;8688;54.444;18.444;2022-11-15T01:43:21;64.13;;;27.00;;
17145;SDS011;8688;54.444;18.444;2022-11-15T01:45:52;61.43;;;27.67;;
17145;SDS011;8688;54.444;18.444;2022-11-15T01:48:27;64.83;;;27.40;;
17145;SDS011;8688;54.444;18.444;2022-11-15T01:50:57;63.57;;;26.87;;
17145;SDS011;8688;54.444;18.444;2022-11-15T01:53:24;61.30;;;26.17;;
17145;SDS011;8688;54.444;18.444;2022-11-15T01:55:53;66.03;;;27.93;;
17145;SDS011;8688;54.444;18.444;2022-11-15T01:58:21;57.43;;;25.20;;
17145;SDS011;8688;54.444;18.444;2022-11-15T02:00:48;61.63;;;26.43;;
17145;SDS011;8688;54.444;18.444;2022-11-15T02:03:18;56.87;;;24.87;;
17145;SDS011;8688;54.444;18.444;2022-11-15T02:05:46;58.90;;;25.00;;
17145;SDS011;8688;54.444;18.444;2022-11-15T02:08:15;56.77;;;24.83;;
17145;SDS011;8688;54.444;18.444;2022-11-15T02:10:46;55.97;;;24.43;;
17145;SDS011;8688;54.444;18.444;2022-11-15T02:13:13;60.43;;;24.97;;
17145;SDS011;8688;54.444;18.444;2022-11-15T02:15:51;56.53;;;23.90;;
17145;SDS011;8688;54.444;18.444;2022-11-15T02:18:26;58.83;;;26.03;;
17145;SDS011;8688;54.444;18.444;2022-11-15T02:21:02;58.10;;;24.73;;
17145;SDS011;8688;54.444;18.444;2022-11-15T02:24:04;64.93;;;25.50;;
17145;SDS011;8688;54.444;18.444;2022-11-15T02:26:52;56.50;;;23.40;;
17145;SDS011;8688;54.444;18.444;2022-11-15T02:29:59;58.20;;;24.23;;
17145;SDS011;8688;54.444;18.444;2022-11-15T02:32:36;59.93;;;24.87;;
17145;SDS011;8688;54.444;18.444;2022-11-15T02:35:12;56.87;;;24.03;;
17145;SDS011;8688;54.444;18.444;2022-11-15T02:37:47;57.07;;;25.20;;
17145;SDS011;8688;54.444;18.444;2022-11-15T02:40:23;58.53;;;23.83;;
17145;SDS011;8688;54.444;18.444;2022-11-15T02:43:02;56.43;;;23.90;;
17145;SDS011;8688;54.444;18.444;2022-11-15T02:45:53;56.37;;;23.77;;
17145;SDS011;8688;54.444;18.444;2022-11-15T02:48:29;59.23;;;24.80;;
17145;SDS011;8688;54.444;18.444;2022-11-15T02:50:58;57.70;;;23.57;;
17145;SDS011;8688;54.444;18.444;2022-11-15T02:53:25;57.63;;;24.30;;
17145;SDS011;8688;54.444;18.444;2022-11-15T02:55:53;57.17;;;23.70;;
17145;SDS011;8688;54.444;18.444;2022-11-15T03:01:18;57.67;;;24.03;;
17145;SDS011;8688;54.444;18.444;2022-11-15T03:04:02;59.30;;;23.53;;
17145;SDS011;8688;54.444;18.444;2022-11-15T03:06:42;58.20;;;23.00;;
17145;SDS011;8688;54.444;18.444;2022-11-15T03:09:15;61.00;;;24.13;;
17145;SDS011;8688;54.444;18.444;2022-11-15T03:11:53;55.30;;;22.80;;
17145;SDS011;8688;54.444;18.444;2022-11-15T03:14:25;60.10;;;24.37;;
17145;SDS011;8688;54.444;18.444;2022-11-15T03:17:01;59.03;;;23.63;;
17145;SDS011;8688;54.444;18.444;2022-11-15T03:19:40;57.60;;;23.80;;
17145;SDS011;8688;54.444;18.444;2022-11-15T03:22:11;60.67;;;23.57;;
17145;SDS011;8688;54.444;18.444;2022-11-15T03:24:42;58.90;;;23.83;;
17145;SDS011;8688;54.444;18.444;2022-11-15T03:27:12;57.23;;;23.27;;
17145;SDS011;8688;54.444;18.444;2022-11-15T03:29:43;62.27;;;24.27;;
17145;SDS011;8688;54.444;18.444;2022-11-15T03:32:14;57.27;;;23.90;;
17145;SDS011;8688;54.444;18.444;2022-11-15T03:34:47;60.23;;;24.27;;
17145;SDS011;8688;54.444;18.444;2022-11-15T03:37:20;53.77;;;22.47;;
17145;SDS011;8688;54.444;18.444;2022-11-15T03:39:50;49.87;;;20.53;;
17145;SDS011;8688;54.444;18.444;2022-11-15T03:42:20;47.17;;;20.50;;
17145;SDS011;8688;54.444;18.444;2022-11-15T03:44:54;51.27;;;21.53;;
17145;SDS011;8688;54.444;18.444;2022-11-15T03:47:30;51.33;;;21.17;;
17145;SDS011;8688;54.444;18.444;2022-11-15T03:50:03;52.67;;;21.07;;
17145;SDS011;8688;54.444;18.444;2022-11-15T03:52:34;44.57;;;19.70;;
17145;SDS011;8688;54.444;18.444;2022-11-15T03:55:03;41.07;;;18.83;;
17145;SDS011;8688;54.444;18.444;2022-11-15T03:57:33;41.63;;;19.00;;
17145;SDS011;8688;54.444;18.444;2022-11-15T04:00:00;42.47;;;18.87;;
17145;SDS011;8688;54.444;18.444;2022-11-15T04:02:28;38.87;;;18.83;;
17145;SDS011;8688;54.444;18.444;2022-11-15T04:04:55;44.50;;;19.17;;
17145;SDS011;8688;54.444;18.444;2022-11-15T04:07:24;44.47;;;18.53;;
17145;SDS011;8688;54.444;18.444;2022-11-15T04:09:51;41.60;;;19.10;;
17145;SDS011;8688;54.444;18.444;2022-11-15T04:12:32;49.67;;;20.10;;
17145;SDS011;8688;54.444;18.444;2022-11-15T04:15:01;46.03;;;20.67;;
17145;SDS011;8688;54.444;18.444;2022-11-15T04:17:34;53.63;;;22.30;;
17145;SDS011;8688;54.444;18.444;2022-11-15T04:20:02;57.37;;;23.20;;
17145;SDS011;8688;54.444;18.444;2022-11-15T04:22:51;52.43;;;22.07;;
17145;SDS011;8688;54.444;18.444;2022-11-15T04:25:36;50.17;;;20.37;;
17145;SDS011;8688;54.444;18.444;2022-11-15T04:28:04;49.57;;;19.97;;
17145;SDS011;8688;54.444;18.444;2022-11-15T04:30:31;50.50;;;20.07;;
17145;SDS011;8688;54.444;18.444;2022-11-15T04:32:58;52.20;;;20.37;;
17145;SDS011;8688;54.444;18.444;2022-11-15T04:35:26;44.17;;;19.03;;
17145;SDS011;8688;54.444;18.444;2022-11-15T04:37:55;54.23;;;19.77;;
17145;SDS011;8688;54.444;18.444;2022-11-15T04:40:22;52.37;;;20.47;;
17145;SDS011;8688;54.444;18.444;2022-11-15T04:42:50;56.07;;;21.47;;
17145;SDS011;8688;54.444;18.444;2022-11-15T04:45:18;46.47;;;18.80;;
17145;SDS011;8688;54.444;18.444;2022-11-15T04:47:46;49.67;;;20.27;;
17145;SDS011;8688;54.444;18.444;2022-11-15T04:50:13;55.37;;;20.10;;
17145;SDS011;8688;54.444;18.444;2022-11-15T04:52:42;55.20;;;20.40;;
17145;SDS011;8688;54.444;18.444;2022-11-15T04:55:12;56.80;;;20.07;;
17145;SDS011;8688;54.444;18.444;2022-11-15T04:57:39;48.47;;;19.47;;
17145;SDS011;8688;54.444;18.444;2022-11-15T05:00:07;54.33;;;21.73;;
17145;SDS011;8688;54.444;18.444;2022-11-15T05:02:36;58.53;;;21.03;;
17145;SDS011;8688;54.444;18.444;2022-11-15T05:05:21;54.63;;;20.00;;
17145;SDS011;8688;54.444;18.444;2022-11-15T05:07:48;52.90;;;20.40;;
17145;SDS011;8688;54.444;18.444;2022-11-15T05:10:17;56.50;;;21.00;;
17145;SDS011;8688;54.444;18.444;2022-11-15T05:12:46;57.43;;;20.40;;
17145;SDS011;8688;54.444;18.444;2022-11-15T05:15:14;51.37;;;21.07;;
17145;SDS011;8688;54.444;18.444;2022-11-15T05:17:41;50.77;;;20.93;;
17145;SDS011;8688;54.444;18.444;2022-11-15T05:20:09;58.23;;;20.97;;
17145;SDS011;8688;54.444;18.444;2022-11-15T05:22:37;50.97;;;20.60;;
17145;SDS011;8688;54.444;18.444;2022-11-15T05:25:05;60.47;;;20.83;;
17145;SDS011;8688;54.444;18.444;2022-11-15T05:27:34;54.67;;;20.70;;
17145;SDS011;8688;54.444;18.444;2022-11-15T05:30:02;58.37;;;21.97;;
17145;SDS011;8688;54.444;18.444;2022-11-15T05:32:29;47.83;;;20.63;;
17145;SDS011;8688;54.444;18.444;2022-11-15T05:34:57;52.90;;;20.80;;
17145;SDS011;8688;54.444;18.444;2022-11-15T05:37:25;49.80;;;20.27;;
17145;SDS011;8688;54.444;18.444;2022-11-15T05:39:53;54.17;;;20.33;;
17145;SDS011;8688;54.444;18.444;2022-11-15T05:42:20;52.83;;;21.03;;
17145;SDS011;8688;54.444;18.444;2022-11-15T05:44:49;50.30;;;20.73;;
17145;SDS011;8688;54.444;18.444;2022-11-15T05:47:17;54.37;;;20.03;;
17145;SDS011;8688;54.444;18.444;2022-11-15T05:49:48;55.97;;;21.17;;
17145;SDS011;8688;54.444;18.444;2022-11-15T05:52:20;57.00;;;22.03;;
17145;SDS011;8688;54.444;18.444;2022-11-15T05:54:49;59.87;;;22.53;;
17145;SDS011;8688;54.444;18.444;2022-11-15T05:57:17;57.10;;;21.47;;
17145;SDS011;8688;54.444;18.444;2022-11-15T05:59:44;60.53;;;21.57;;
17145;SDS011;8688;54.444;18.444;2022-11-15T06:02:13;53.40;;;20.83;;
17145;SDS011;8688;54.444;18.444;2022-11-15T06:04:40;50.13;;;20.60;;
17145;SDS011;8688;54.444;18.444;2022-11-15T06:07:08;55.33;;;21.60;;
17145;SDS011;8688;54.444;18.444;2022-11-15T06:09:35;50.03;;;20.37;;
17145;SDS011;8688;54.444;18.444;2022-11-15T06:12:03;55.33;;;21.23;;
17145;SDS011;8688;54.444;18.444;2022-11-15T06:14:31;52.87;;;20.33;;
17145;SDS011;8688;54.444;18.444;2022-11-15T06:16:58;50.03;;;19.90;;
17145;SDS011;8688;54.444;18.444;2022-11-15T06:19:27;54.03;;;20.57;;
17145;SDS011;8688;54.444;18.444;2022-11-15T06:21:58;46.83;;;19.63;;
17145;SDS011;8688;54.444;18.444;2022-11-15T06:24:25;47.90;;;20.23;;
17145;SDS011;8688;54.444;18.444;2022-11-15T06:26:52;45.77;;;19.23;;
17145;SDS011;8688;54.444;18.444;2022-11-15T06:32:02;48.03;;;18.93;;
17145;SDS011;8688;54.444;18.444;2022-11-15T06:34:31;45.00;;;19.37;;
17145;SDS011;8688;54.444;18.444;2022-11-15T06:37:00;46.53;;;19.33;;
17145;SDS011;8688;54.444;18.444;2022-11-15T06:39:29;42.50;;;17.80;;
17145;SDS011;8688;54.444;18.444;2022-11-15T06:41:56;45.53;;;17.87;;
17145;SDS011;8688;54.444;18.444;2022-11-15T06:44:23;41.17;;;16.97;;
17145;SDS011;8688;54.444;18.444;2022-11-15T06:46:51;44.10;;;17.73;;
17145;SDS011;8688;54.444;18.444;2022-11-15T06:49:18;43.87;;;18.50;;
17145;SDS011;8688;54.444;18.444;2022-11-15T06:51:47;41.07;;;17.57;;
17145;SDS011;8688;54.444;18.444;2022-11-15T06:54:14;42.33;;;17.97;;
17145;SDS011;8688;54.444;18.444;2022-11-15T06:56:42;39.47;;;17.00;;
17145;SDS011;8688;54.444;18.444;2022-11-15T06:59:09;62.43;;;28.47;;
17145;SDS011;8688;54.444;18.444;2022-11-15T07:01:37;62.73;;;31.13;;
17145;SDS011;8688;54.444;18.444;2022-11-15T07:04:04;41.43;;;19.57;;
17145;SDS011;8688;54.444;18.444;2022-11-15T07:06:31;45.03;;;20.80;;
17145;SDS011;8688;54.444;18.444;2022-11-15T07:09:00;38.13;;;17.43;;
17145;SDS011;8688;54.444;18.444;2022-11-15T07:11:29;41.47;;;18.73;;
17145;SDS011;8688;54.444;18.444;2022-11-15T07:13:56;40.13;;;17.20;;
17145;SDS011;8688;54.444;18.444;2022-11-15T07:16:24;44.70;;;19.13;;
17145;SDS011;8688;54.444;18.444;2022-11-15T07:18:51;40.83;;;18.00;;
17145;SDS011;8688;54.444;18.444;2022-11-15T07:21:19;39.20;;;18.20;;
17145;SDS011;8688;54.444;18.444;2022-11-15T07:23:46;39.27;;;17.50;;
17145;SDS011;8688;54.444;18.444;2022-11-15T07:26:15;35.47;;;16.17;;
17145;SDS011;8688;54.444;18.444;2022-11-15T07:28:42;38.23;;;16.70;;
17145;SDS011;8688;54.444;18.444;2022-11-15T07:31:10;37.37;;;15.50;;
17145;SDS011;8688;54.444;18.444;2022-11-15T07:33:37;37.37;;;16.43;;
17145;SDS011;8688;54.444;18.444;2022-11-15T07:36:05;38.90;;;15.97;;
17145;SDS011;8688;54.444;18.444;2022-11-15T07:38:34;37.40;;;16.90;;
17145;SDS011;8688;54.444;18.444;2022-11-15T07:41:03;41.53;;;16.30;;
17145;SDS011;8688;54.444;18.444;2022-11-15T07:43:33;40.17;;;15.90;;
17145;SDS011;8688;54.444;18.444;2022-11-15T07:46:04;36.47;;;14.93;;
17145;SDS011;8688;54.444;18.444;2022-11-15T07:48:34;37.17;;;14.90;;
17145;SDS011;8688;54.444;18.444;2022-11-15T07:51:02;42.10;;;16.90;;
17145;SDS011;8688;54.444;18.444;2022-11-15T07:53:29;38.10;;;15.57;;
17145;SDS011;8688;54.444;18.444;2022-11-15T07:55:57;36.90;;;15.90;;
17145;SDS011;8688;54.444;18.444;2022-11-15T07:58:24;36.83;;;16.07;;
17145;SDS011;8688;54.444;18.444;2022-11-15T08:00:53;39.20;;;16.87;;
17145;SDS011;8688;54.444;18.444;2022-11-15T08:03:20;40.70;;;16.73;;
17145;SDS011;8688;54.444;18.444;2022-11-15T08:05:49;38.40;;;15.83;;
17145;SDS011;8688;54.444;18.444;2022-11-15T08:08:17;35.30;;;15.20;;
17145;SDS011;8688;54.444;18.444;2022-11-15T08:10:45;35.83;;;15.90;;
17145;SDS011;8688;54.444;18.444;2022-11-15T08:13:12;40.33;;;16.00;;
17145;SDS011;8688;54.444;18.444;2022-11-15T08:15:40;37.77;;;15.43;;
17145;SDS011;8688;54.444;18.444;2022-11-15T08:18:11;30.63;;;13.10;;
17145;SDS011;8688;54.444;18.444;2022-11-15T08:20:39;30.60;;;12.67;;
17145;SDS011;8688;54.444;18.444;2022-11-15T08:23:07;29.83;;;14.17;;
17145;SDS011;8688;54.444;18.444;2022-11-15T08:25:36;31.27;;;13.47;;
17145;SDS011;8688;54.444;18.444;2022-11-15T08:28:04;29.07;;;12.97;;
17145;SDS011;8688;54.444;18.444;2022-11-15T08:30:34;27.73;;;13.13;;
17145;SDS011;8688;54.444;18.444;2022-11-15T08:33:04;30.23;;;13.80;;
17145;SDS011;8688;54.444;18.444;2022-11-15T08:35:33;31.30;;;14.07;;
17145;SDS011;8688;54.444;18.444;2022-11-15T08:38:00;34.30;;;15.20;;
17145;SDS011;8688;54.444;18.444;2022-11-15T08:40:27;34.87;;;15.30;;
17145;SDS011;8688;54.444;18.444;2022-11-15T08:42:55;31.53;;;14.30;;
17145;SDS011;8688;54.444;18.444;2022-11-15T08:45:23;33.83;;;14.40;;
17145;SDS011;8688;54.444;18.444;2022-11-15T08:47:51;31.40;;;14.37;;
17145;SDS011;8688;54.444;18.444;2022-11-15T08:50:18;28.70;;;13.03;;
17145;SDS011;8688;54.444;18.444;2022-11-15T08:52:47;29.30;;;12.53;;
17145;SDS011;8688;54.444;18.444;2022-11-15T08:55:15;28.00;;;12.70;;
17145;SDS011;8688;54.444;18.444;2022-11-15T08:57:42;28.57;;;12.47;;
17145;SDS011;8688;54.444;18.444;2022-11-15T09:00:10;29.40;;;13.60;;
17145;SDS011;8688;54.444;18.444;2022-11-15T09:02:38;34.80;;;14.47;;
17145;SDS011;8688;54.444;18.444;2022-11-15T09:05:07;32.40;;;15.50;;
17145;SDS011;8688;54.444;18.444;2022-11-15T09:07:35;35.40;;;18.70;;
17145;SDS011;8688;54.444;18.444;2022-11-15T09:10:04;32.47;;;14.60;;
17145;SDS011;8688;54.444;18.444;2022-11-15T09:12:32;30.93;;;15.27;;
17145;SDS011;8688;54.444;18.444;2022-11-15T09:15:00;30.33;;;14.70;;
17145;SDS011;8688;54.444;18.444;2022-11-15T09:17:27;30.47;;;13.40;;
17145;SDS011;8688;54.444;18.444;2022-11-15T09:39:07;31.07;;;14.10;;
17145;SDS011;8688;54.444;18.444;2022-11-15T09:41:40;30.27;;;14.30;;
17145;SDS011;8688;54.444;18.444;2022-11-15T09:44:26;34.93;;;17.47;;
17145;SDS011;8688;54.444;18.444;2022-11-15T09:47:08;34.47;;;15.40;;
17145;SDS011;8688;54.444;18.444;2022-11-15T09:49:58;29.87;;;14.70;;
17145;SDS011;8688;54.444;18.444;2022-11-15T09:52:28;34.70;;;15.70;;
17145;SDS011;8688;54.444;18.444;2022-11-15T09:54:57;33.97;;;15.30;;
17145;SDS011;8688;54.444;18.444;2022-11-15T09:57:28;32.33;;;14.43;;
17145;SDS011;8688;54.444;18.444;2022-11-15T10:00:00;32.10;;;15.13;;
17145;SDS011;8688;54.444;18.444;2022-11-15T10:02:38;29.50;;;13.70;;
17145;SDS011;8688;54.444;18.444;2022-11-15T10:05:18;31.80;;;15.73;;
17145;SDS011;8688;54.444;18.444;2022-11-15T10:07:50;29.50;;;15.27;;
17145;SDS011;8688;54.444;18.444;2022-11-15T10:10:29;30.50;;;14.20;;
17145;SDS011;8688;54.444;18.444;2022-11-15T10:13:02;27.43;;;12.97;;
17145;SDS011;8688;54.444;18.444;2022-11-15T10:15:30;29.17;;;14.50;;
17145;SDS011;8688;54.444;18.444;2022-11-15T10:18:04;31.07;;;14.47;;
17145;SDS011;8688;54.444;18.444;2022-11-15T10:20:50;29.40;;;12.93;;
17145;SDS011;8688;54.444;18.444;2022-11-15T10:31:20;23.90;;;11.63;;
17145;SDS011;8688;54.444;18.444;2022-11-15T10:33:49;27.63;;;12.30;;
17145;SDS011;8688;54.444;18.444;2022-11-15T10:36:19;29.60;;;12.93;;
17145;SDS011;8688;54.444;18.444;2022-11-15T10:38:55;26.77;;;12.70;;
17145;SDS011;8688;54.444;18.444;2022-11-15T10:41:31;25.80;;;12.63;;
17145;SDS011;8688;54.444;18.444;2022-11-15T10:44:07;28.60;;;14.20;;
17145;SDS011;8688;54.444;18.444;2022-11-15T10:46:46;23.53;;;12.10;;
17145;SDS011;8688;54.444;18.444;2022-11-15T10:49:16;26.47;;;12.10;;
17145;SDS011;8688;54.444;18.444;2022-11-15T10:51:45;29.73;;;13.30;;
17145;SDS011;8688;54.444;18.444;2022-11-15T10:54:16;29.30;;;12.70;;
17145;SDS011;8688;54.444;18.444;2022-11-15T10:56:50;29.37;;;13.07;;
17145;SDS011;8688;54.444;18.444;2022-11-15T10:59:21;26.00;;;12.23;;
17145;SDS011;8688;54.444;18.444;2022-11-15T11:01:54;25.60;;;11.57;;
17145;SDS011;8688;54.444;18.444;2022-11-15T11:04:22;26.33;;;11.77;;
17145;SDS011;8688;54.444;18.444;2022-11-15T11:06:50;30.47;;;13.70;;
17145;SDS011;8688;54.444;18.444;2022-11-15T11:09:25;32.13;;;13.83;;
17145;SDS011;8688;54.444;18.444;2022-11-15T11:11:57;31.80;;;13.73;;
17145;SDS011;8688;54.444;18.444;2022-11-15T11:14:26;29.30;;;14.63;;
17145;SDS011;8688;54.444;18.444;2022-11-15T11:17:00;30.57;;;14.17;;
17145;SDS011;8688;54.444;18.444;2022-11-15T11:22:27;34.50;;;14.53;;
17145;SDS011;8688;54.444;18.444;2022-11-15T11:25:05;35.97;;;14.73;;
17145;SDS011;8688;54.444;18.444;2022-11-15T11:27:47;39.93;;;16.13;;
17145;SDS011;8688;54.444;18.444;2022-11-15T11:30:24;42.30;;;17.43;;
17145;SDS011;8688;54.444;18.444;2022-11-15T11:33:07;41.10;;;17.70;;
17145;SDS011;8688;54.444;18.444;2022-11-15T11:35:42;39.40;;;17.00;;
17145;SDS011;8688;54.444;18.444;2022-11-15T11:38:19;45.30;;;17.93;;
17145;SDS011;8688;54.444;18.444;2022-11-15T11:41:02;44.07;;;18.40;;
17145;SDS011;8688;54.444;18.444;2022-11-15T11:43:37;43.10;;;17.50;;
17145;SDS011;8688;54.444;18.444;2022-11-15T11:46:38;40.77;;;17.07;;
17145;SDS011;8688;54.444;18.444;2022-11-15T11:49:20;42.30;;;17.50;;
17145;SDS011;8688;54.444;18.444;2022-11-15T11:51:56;42.00;;;17.63;;
17145;SDS011;8688;54.444;18.444;2022-11-15T11:54:31;43.17;;;17.50;;
17145;SDS011;8688;54.444;18.444;2022-11-15T11:57:05;42.23;;;17.73;;
17145;SDS011;8688;54.444;18.444;2022-11-15T11:59:41;38.50;;;17.37;;
17145;SDS011;8688;54.444;18.444;2022-11-15T12:02:16;45.87;;;18.37;;
17145;SDS011;8688;54.444;18.444;2022-11-15T12:04:49;44.60;;;17.30;;
17145;SDS011;8688;54.444;18.444;2022-11-15T12:07:20;46.43;;;18.90;;
17145;SDS011;8688;54.444;18.444;2022-11-15T12:09:51;43.50;;;19.87;;
17145;SDS011;8688;54.444;18.444;2022-11-15T12:12:25;46.87;;;19.47;;
17145;SDS011;8688;54.444;18.444;2022-11-15T12:15:00;41.27;;;16.97;;
17145;SDS011;8688;54.444;18.444;2022-11-15T12:17:30;45.43;;;18.60;;
17145;SDS011;8688;54.444;18.444;2022-11-15T12:20:00;46.00;;;19.40;;
17145;SDS011;8688;54.444;18.444;2022-11-15T12:22:35;50.10;;;20.67;;
17145;SDS011;8688;54.444;18.444;2022-11-15T12:25:13;45.53;;;18.90;;
17145;SDS011;8688;54.444;18.444;2022-11-15T12:27:45;44.60;;;20.23;;
17145;SDS011;8688;54.444;18.444;2022-11-15T12:30:16;43.93;;;18.77;;
17145;SDS011;8688;54.444;18.444;2022-11-15T12:32:52;45.47;;;18.63;;
17145;SDS011;8688;54.444;18.444;2022-11-15T12:35:29;48.67;;;20.67;;
17145;SDS011;8688;54.444;18.444;2022-11-15T12:38:00;43.60;;;19.13;;
17145;SDS011;8688;54.444;18.444;2022-11-15T12:40:29;52.70;;;19.57;;
17145;SDS011;8688;54.444;18.444;2022-11-15T12:46:01;51.60;;;19.83;;
17145;SDS011;8688;54.444;18.444;2022-11-15T12:57:34;56.10;;;21.37;;
17145;SDS011;8688;54.444;18.444;2022-11-15T13:03:20;59.10;;;22.70;;
17145;SDS011;8688;54.444;18.444;2022-11-15T13:05:58;52.07;;;20.83;;
17145;SDS011;8688;54.444;18.444;2022-11-15T13:08:46;52.47;;;21.67;;
17145;SDS011;8688;54.444;18.444;2022-11-15T13:14:41;52.23;;;22.60;;
17145;SDS011;8688;54.444;18.444;2022-11-15T13:17:24;60.60;;;23.57;;
17145;SDS011;8688;54.444;18.444;2022-11-15T13:19:57;51.90;;;22.60;;
17145;SDS011;8688;54.444;18.444;2022-11-15T13:22:43;61.23;;;24.40;;
17145;SDS011;8688;54.444;18.444;2022-11-15T13:28:29;60.17;;;23.30;;
17145;SDS011;8688;54.444;18.444;2022-11-15T13:31:01;129.37;;;52.30;;
17145;SDS011;8688;54.444;18.444;2022-11-15T13:33:30;60.30;;;25.40;;
17145;SDS011;8688;54.444;18.444;2022-11-15T13:36:00;59.77;;;24.07;;
17145;SDS011;8688;54.444;18.444;2022-11-15T13:38:31;59.70;;;24.20;;
17145;SDS011;8688;54.444;18.444;2022-11-15T13:41:10;56.47;;;24.23;;
17145;SDS011;8688;54.444;18.444;2022-11-15T13:43:44;52.97;;;21.63;;
17145;SDS011;8688;54.444;18.444;2022-11-15T13:46:13;51.70;;;22.63;;
17145;SDS011;8688;54.444;18.444;2022-11-15T13:48:43;61.53;;;25.60;;
17145;SDS011;8688;54.444;18.444;2022-11-15T13:51:14;57.57;;;25.10;;
17145;SDS011;8688;54.444;18.444;2022-11-15T13:53:45;65.53;;;29.57;;
17145;SDS011;8688;54.444;18.444;2022-11-15T13:56:16;63.23;;;27.40;;
17145;SDS011;8688;54.444;18.444;2022-11-15T13:58:48;67.00;;;27.97;;
17145;SDS011;8688;54.444;18.444;2022-11-15T14:01:17;71.70;;;30.03;;
17145;SDS011;8688;54.444;18.444;2022-11-15T14:03:47;64.27;;;27.83;;
17145;SDS011;8688;54.444;18.444;2022-11-15T14:06:19;60.87;;;24.37;;
17145;SDS011;8688;54.444;18.444;2022-11-15T14:08:59;57.47;;;25.80;;
17145;SDS011;8688;54.444;18.444;2022-11-15T14:11:31;56.00;;;26.20;;
17145;SDS011;8688;54.444;18.444;2022-11-15T14:14:01;49.57;;;23.17;;
17145;SDS011;8688;54.444;18.444;2022-11-15T14:16:38;53.63;;;22.47;;
17145;SDS011;8688;54.444;18.444;2022-11-15T14:19:09;50.80;;;23.30;;
17145;SDS011;8688;54.444;18.444;2022-11-15T14:25:05;49.87;;;20.37;;
17145;SDS011;8688;54.444;18.444;2022-11-15T14:27:41;50.93;;;19.87;;
17145;SDS011;8688;54.444;18.444;2022-11-15T14:30:14;46.03;;;19.77;;
17145;SDS011;8688;54.444;18.444;2022-11-15T14:32:43;43.20;;;18.63;;
17145;SDS011;8688;54.444;18.444;2022-11-15T14:35:14;42.70;;;20.37;;
17145;SDS011;8688;54.444;18.444;2022-11-15T14:37:43;40.07;;;19.57;;
17145;SDS011;8688;54.444;18.444;2022-11-15T14:40:12;42.43;;;18.93;;
17145;SDS011;8688;54.444;18.444;2022-11-15T14:42:41;41.37;;;19.60;;
17145;SDS011;8688;54.444;18.444;2022-11-15T14:45:10;40.40;;;18.93;;
17145;SDS011;8688;54.444;18.444;2022-11-15T14:47:41;35.57;;;18.77;;
17145;SDS011;8688;54.444;18.444;2022-11-15T14:50:12;41.10;;;19.07;;
17145;SDS011;8688;54.444;18.444;2022-11-15T14:52:41;39.20;;;18.63;;
17145;SDS011;8688;54.444;18.444;2022-11-15T14:55:11;38.20;;;18.33;;
17145;SDS011;8688;54.444;18.444;2022-11-15T14:57:43;32.80;;;15.50;;
17145;SDS011;8688;54.444;18.444;2022-11-15T15:00:12;33.60;;;16.20;;
17145;SDS011;8688;54.444;18.444;2022-11-15T15:02:42;31.40;;;14.23;;
17145;SDS011;8688;54.444;18.444;2022-11-15T15:05:14;34.17;;;15.97;;
17145;SDS011;8688;54.444;18.444;2022-11-15T15:07:42;32.43;;;15.37;;
17145;SDS011;8688;54.444;18.444;2022-11-15T15:10:10;30.53;;;14.47;;
17145;SDS011;8688;54.444;18.444;2022-11-15T15:12:38;30.03;;;15.20;;
17145;SDS011;8688;54.444;18.444;2022-11-15T15:15:08;31.00;;;13.90;;
17145;SDS011;8688;54.444;18.444;2022-11-15T15:17:42;28.87;;;14.37;;
17145;SDS011;8688;54.444;18.444;2022-11-15T15:20:10;31.20;;;15.83;;
17145;SDS011;8688;54.444;18.444;2022-11-15T15:22:37;31.10;;;14.80;;
17145;SDS011;8688;54.444;18.444;2022-11-15T15:25:14;28.57;;;13.50;;
17145;SDS011;8688;54.444;18.444;2022-11-15T15:27:48;29.30;;;14.17;;
17145;SDS011;8688;54.444;18.444;2022-11-15T15:30:15;25.90;;;14.33;;
17145;SDS011;8688;54.444;18.444;2022-11-15T15:32:45;30.13;;;14.90;;
17145;SDS011;8688;54.444;18.444;2022-11-15T15:35:12;29.60;;;15.43;;
17145;SDS011;8688;54.444;18.444;2022-11-15T15:37:40;33.43;;;16.90;;
17145;SDS011;8688;54.444;18.444;2022-11-15T15:40:10;30.37;;;15.23;;
17145;SDS011;8688;54.444;18.444;2022-11-15T15:42:40;30.87;;;15.17;;
17145;SDS011;8688;54.444;18.444;2022-11-15T15:45:08;22.83;;;12.87;;
17145;SDS011;8688;54.444;18.444;2022-11-15T15:47:36;25.33;;;13.13;;
17145;SDS011;8688;54.444;18.444;2022-11-15T15:50:08;25.97;;;14.23;;